sensor_id;sensor_type;location;lat;lon;timestamp;pressure;altitude;pressure_sealevel;temperature;humidity
60437;BME280;46289;51.992;4.498;2023-09-18T00:00:49;100622.72;;;17.90;100.00
60437;BME280;46289;51.992;4.498;2023-09-18T00:02:59;100621.03;;;17.89;100.00
60437;BME280;46289;51.992;4.498;2023-09-18T00:05:05;100621.03;;;17.89;100.00
60437;BME280;46289;51.992;4.498;2023-09-18T00:07:11;100608.25;;;17.94;100.00
60437;BME280;46289;51.992;4.498;2023-09-18T00:09:15;100612.38;;;17.98;100.00
60437;BME280;46289;51.992;4.498;2023-09-18T00:11:20;100602.59;;;17.99;100.00
60437;BME280;46289;51.992;4.498;2023-09-18T00:13:29;100605.13;;;18.01;100.00
60437;BME280;46289;51.992;4.498;2023-09-18T00:15:34;100599.47;;;18.05;100.00
60437;BME280;46289;51.992;4.498;2023-09-18T00:17:40;100601.28;;;18.05;100.00
60437;BME280;46289;51.992;4.498;2023-09-18T00:19:45;100598.38;;;18.08;100.00
60437;BME280;46289;51.992;4.498;2023-09-18T00:21:50;100595.47;;;18.11;100.00
60437;BME280;46289;51.992;4.498;2023-09-18T00:23:59;100583.41;;;18.18;100.00
60437;BME280;46289;51.992;4.498;2023-09-18T00:26:04;100582.69;;;18.16;100.00
60437;BME280;46289;51.992;4.498;2023-09-18T00:28:09;100573.03;;;18.15;100.00
60437;BME280;46289;51.992;4.498;2023-09-18T00:30:17;100582.59;;;18.17;100.00
60437;BME280;46289;51.992;4.498;2023-09-18T00:32:24;100569.38;;;18.16;100.00
60437;BME280;46289;51.992;4.498;2023-09-18T00:34:31;100567.94;;;18.12;100.00
60437;BME280;46289;51.992;4.498;2023-09-18T00:36:37;100567.72;;;18.15;100.00
60437;BME280;46289;51.992;4.498;2023-09-18T00:38:46;100556.44;;;18.11;100.00
60437;BME280;46289;51.992;4.498;2023-09-18T00:40:52;100539.88;;;18.08;100.00
60437;BME280;46289;51.992;4.498;2023-09-18T00:42:57;100534.56;;;18.08;100.00
60437;BME280;46289;51.992;4.498;2023-09-18T00:45:06;100537.97;;;18.10;100.00
60437;BME280;46289;51.992;4.498;2023-09-18T00:47:14;100529.25;;;18.08;100.00
60437;BME280;46289;51.992;4.498;2023-09-18T00:49:20;100511.84;;;18.04;100.00
60437;BME280;46289;51.992;4.498;2023-09-18T00:51:27;100498.56;;;18.04;100.00
60437;BME280;46289;51.992;4.498;2023-09-18T00:53:32;100487.44;;;17.98;100.00
60437;BME280;46289;51.992;4.498;2023-09-18T00:55:39;100474.25;;;17.97;100.00
60437;BME280;46289;51.992;4.498;2023-09-18T00:57:44;100461.78;;;17.97;100.00
60437;BME280;46289;51.992;4.498;2023-09-18T00:59:50;100469.50;;;18.01;100.00
60437;BME280;46289;51.992;4.498;2023-09-18T01:01:56;100470.50;;;17.99;100.00
60437;BME280;46289;51.992;4.498;2023-09-18T01:04:02;100482.09;;;17.98;100.00
60437;BME280;46289;51.992;4.498;2023-09-18T01:06:07;100481.13;;;17.99;100.00
60437;BME280;46289;51.992;4.498;2023-09-18T01:08:13;100469.31;;;18.04;100.00
60437;BME280;46289;51.992;4.498;2023-09-18T01:10:18;100471.72;;;18.07;100.00
60437;BME280;46289;51.992;4.498;2023-09-18T01:12:30;100468.44;;;18.03;100.00
60437;BME280;46289;51.992;4.498;2023-09-18T01:14:44;100460.34;;;18.05;100.00
60437;BME280;46289;51.992;4.498;2023-09-18T01:16:57;100464.19;;;18.01;100.00
60437;BME280;46289;51.992;4.498;2023-09-18T01:19:09;100470.16;;;18.04;100.00
60437;BME280;46289;51.992;4.498;2023-09-18T01:21:14;100473.88;;;18.02;100.00
60437;BME280;46289;51.992;4.498;2023-09-18T01:23:22;100477.38;;;18.02;100.00
60437;BME280;46289;51.992;4.498;2023-09-18T01:25:27;100474.63;;;18.04;100.00
60437;BME280;46289;51.992;4.498;2023-09-18T01:27:33;100476.53;;;18.02;100.00
60437;BME280;46289;51.992;4.498;2023-09-18T01:29:38;100472.66;;;18.06;100.00
60437;BME280;46289;51.992;4.498;2023-09-18T01:31:42;100477.63;;;18.10;100.00
60437;BME280;46289;51.992;4.498;2023-09-18T01:33:51;100478.22;;;18.03;100.00
60437;BME280;46289;51.992;4.498;2023-09-18T01:35:57;100470.50;;;18.11;100.00
60437;BME280;46289;51.992;4.498;2023-09-18T01:38:04;100470.75;;;18.08;100.00
60437;BME280;46289;51.992;4.498;2023-09-18T01:40:16;100466.91;;;18.12;100.00
60437;BME280;46289;51.992;4.498;2023-09-18T01:42:20;100464.22;;;18.12;100.00
60437;BME280;46289;51.992;4.498;2023-09-18T01:44:29;100463.59;;;18.08;100.00
60437;BME280;46289;51.992;4.498;2023-09-18T01:46:34;100460.34;;;18.16;100.00
60437;BME280;46289;51.992;4.498;2023-09-18T01:48:45;100464.59;;;18.18;100.00
60437;BME280;46289;51.992;4.498;2023-09-18T01:50:51;100464.22;;;18.23;100.00
60437;BME280;46289;51.992;4.498;2023-09-18T01:52:59;100468.97;;;18.19;100.00
60437;BME280;46289;51.992;4.498;2023-09-18T01:55:05;100465.56;;;18.17;100.00
60437;BME280;46289;51.992;4.498;2023-09-18T01:57:13;100462.16;;;18.15;100.00
60437;BME280;46289;51.992;4.498;2023-09-18T01:59:19;100471.97;;;18.15;100.00
60437;BME280;46289;51.992;4.498;2023-09-18T02:01:25;100473.66;;;18.16;100.00
60437;BME280;46289;51.992;4.498;2023-09-18T02:03:32;100478.13;;;18.15;100.00
60437;BME280;46289;51.992;4.498;2023-09-18T02:05:57;100488.53;;;18.18;100.00
60437;BME280;46289;51.992;4.498;2023-09-18T02:08:03;100479.44;;;18.21;100.00
60437;BME280;46289;51.992;4.498;2023-09-18T02:10:09;100486.47;;;18.22;100.00
60437;BME280;46289;51.992;4.498;2023-09-18T02:12:17;100489.16;;;18.22;100.00
60437;BME280;46289;51.992;4.498;2023-09-18T02:14:27;100479.44;;;18.21;100.00
60437;BME280;46289;51.992;4.498;2023-09-18T02:16:35;100483.59;;;18.25;100.00
60437;BME280;46289;51.992;4.498;2023-09-18T02:18:45;100479.94;;;18.26;100.00
60437;BME280;46289;51.992;4.498;2023-09-18T02:20:51;100470.53;;;18.22;100.00
60437;BME280;46289;51.992;4.498;2023-09-18T02:22:57;100466.78;;;18.25;100.00
60437;BME280;46289;51.992;4.498;2023-09-18T02:25:02;100472.31;;;18.21;100.00
60437;BME280;46289;51.992;4.498;2023-09-18T02:27:10;100473.41;;;18.19;100.00
60437;BME280;46289;51.992;4.498;2023-09-18T02:29:21;100454.44;;;18.24;100.00
60437;BME280;46289;51.992;4.498;2023-09-18T02:31:27;100433.88;;;18.26;100.00
60437;BME280;46289;51.992;4.498;2023-09-18T02:33:32;100440.03;;;18.26;100.00
60437;BME280;46289;51.992;4.498;2023-09-18T02:35:37;100439.78;;;18.29;100.00
60437;BME280;46289;51.992;4.498;2023-09-18T02:37:43;100421.19;;;18.29;100.00
60437;BME280;46289;51.992;4.498;2023-09-18T02:39:49;100420.22;;;18.30;100.00
60437;BME280;46289;51.992;4.498;2023-09-18T02:41:59;100411.63;;;18.27;100.00
60437;BME280;46289;51.992;4.498;2023-09-18T02:44:04;100402.56;;;18.29;100.00
60437;BME280;46289;51.992;4.498;2023-09-18T02:46:13;100396.50;;;18.27;100.00
60437;BME280;46289;51.992;4.498;2023-09-18T02:48:19;100390.97;;;18.30;100.00
60437;BME280;46289;51.992;4.498;2023-09-18T02:50:22;100377.41;;;18.33;100.00
60437;BME280;46289;51.992;4.498;2023-09-18T02:52:28;100358.19;;;18.30;100.00
60437;BME280;46289;51.992;4.498;2023-09-18T02:54:33;100350.19;;;18.30;100.00
60437;BME280;46289;51.992;4.498;2023-09-18T02:56:38;100344.19;;;18.28;100.00
60437;BME280;46289;51.992;4.498;2023-09-18T02:58:43;100335.72;;;18.23;100.00
60437;BME280;46289;51.992;4.498;2023-09-18T03:00:49;100341.03;;;18.23;100.00
60437;BME280;46289;51.992;4.498;2023-09-18T03:02:56;100337.75;;;18.19;100.00
60437;BME280;46289;51.992;4.498;2023-09-18T03:05:01;100334.16;;;18.20;100.00
60437;BME280;46289;51.992;4.498;2023-09-18T03:07:08;100347.56;;;18.18;100.00
60437;BME280;46289;51.992;4.498;2023-09-18T03:09:13;100346.84;;;18.16;100.00
60437;BME280;46289;51.992;4.498;2023-09-18T03:11:18;100336.19;;;18.16;100.00
60437;BME280;46289;51.992;4.498;2023-09-18T03:13:30;100333.94;;;18.12;100.00
60437;BME280;46289;51.992;4.498;2023-09-18T03:15:36;100333.19;;;18.10;100.00
60437;BME280;46289;51.992;4.498;2023-09-18T03:17:45;100333.44;;;18.07;100.00
60437;BME280;46289;51.992;4.498;2023-09-18T03:19:53;100336.22;;;18.05;100.00
60437;BME280;46289;51.992;4.498;2023-09-18T03:22:01;100337.31;;;18.03;100.00
60437;BME280;46289;51.992;4.498;2023-09-18T03:24:07;100353.75;;;18.08;100.00
60437;BME280;46289;51.992;4.498;2023-09-18T03:26:15;100378.13;;;18.24;100.00
60437;BME280;46289;51.992;4.498;2023-09-18T03:28:20;100391.06;;;18.29;100.00
60437;BME280;46289;51.992;4.498;2023-09-18T03:30:26;100383.94;;;18.40;100.00
60437;BME280;46289;51.992;4.498;2023-09-18T03:32:33;100380.78;;;18.47;100.00
60437;BME280;46289;51.992;4.498;2023-09-18T03:34:41;100388.97;;;18.55;100.00
60437;BME280;46289;51.992;4.498;2023-09-18T03:36:56;100384.00;;;18.61;100.00
60437;BME280;46289;51.992;4.498;2023-09-18T03:39:03;100385.47;;;18.54;100.00
60437;BME280;46289;51.992;4.498;2023-09-18T03:41:08;100374.59;;;18.57;100.00
60437;BME280;46289;51.992;4.498;2023-09-18T03:43:16;100385.13;;;18.59;100.00
60437;BME280;46289;51.992;4.498;2023-09-18T03:45:21;100391.97;;;18.61;100.00
60437;BME280;46289;51.992;4.498;2023-09-18T03:47:27;100384.47;;;18.67;100.00
60437;BME280;46289;51.992;4.498;2023-09-18T03:49:35;100381.22;;;18.63;100.00
60437;BME280;46289;51.992;4.498;2023-09-18T03:51:40;100378.44;;;18.64;100.00
60437;BME280;46289;51.992;4.498;2023-09-18T03:53:57;100355.59;;;18.62;100.00
60437;BME280;46289;51.992;4.498;2023-09-18T03:56:11;100354.13;;;18.58;100.00
60437;BME280;46289;51.992;4.498;2023-09-18T03:58:19;100376.16;;;18.60;100.00
60437;BME280;46289;51.992;4.498;2023-09-18T04:00:24;100390.19;;;18.62;100.00
60437;BME280;46289;51.992;4.498;2023-09-18T04:02:32;100370.09;;;18.58;100.00
60437;BME280;46289;51.992;4.498;2023-09-18T04:04:37;100327.06;;;18.53;100.00
60437;BME280;46289;51.992;4.498;2023-09-18T04:06:44;100314.47;;;18.55;100.00
60437;BME280;46289;51.992;4.498;2023-09-18T04:08:49;100297.78;;;18.53;100.00
60437;BME280;46289;51.992;4.498;2023-09-18T04:10:58;100289.22;;;18.49;100.00
60437;BME280;46289;51.992;4.498;2023-09-18T04:13:06;100298.16;;;18.48;100.00
60437;BME280;46289;51.992;4.498;2023-09-18T04:15:11;100293.94;;;18.46;100.00
60437;BME280;46289;51.992;4.498;2023-09-18T04:17:20;100298.66;;;18.42;100.00
60437;BME280;46289;51.992;4.498;2023-09-18T04:19:27;100286.22;;;18.42;100.00
60437;BME280;46289;51.992;4.498;2023-09-18T04:21:32;100284.63;;;18.40;100.00
60437;BME280;46289;51.992;4.498;2023-09-18T04:23:34;100276.66;;;18.40;100.00
60437;BME280;46289;51.992;4.498;2023-09-18T04:25:40;100279.47;;;18.38;100.00
60437;BME280;46289;51.992;4.498;2023-09-18T04:27:45;100282.97;;;18.39;100.00
60437;BME280;46289;51.992;4.498;2023-09-18T04:29:52;100282.38;;;18.35;100.00
60437;BME280;46289;51.992;4.498;2023-09-18T04:32:04;100285.03;;;18.35;100.00
60437;BME280;46289;51.992;4.498;2023-09-18T04:34:12;100301.00;;;18.35;100.00
60437;BME280;46289;51.992;4.498;2023-09-18T04:36:17;100295.69;;;18.35;100.00
60437;BME280;46289;51.992;4.498;2023-09-18T04:38:20;100293.50;;;18.40;100.00
60437;BME280;46289;51.992;4.498;2023-09-18T04:40:26;100299.03;;;18.37;100.00
60437;BME280;46289;51.992;4.498;2023-09-18T04:42:34;100297.34;;;18.36;100.00
60437;BME280;46289;51.992;4.498;2023-09-18T04:44:44;100299.03;;;18.37;100.00
60437;BME280;46289;51.992;4.498;2023-09-18T04:46:51;100297.34;;;18.36;100.00
60437;BME280;46289;51.992;4.498;2023-09-18T04:48:56;100300.75;;;18.38;100.00
60437;BME280;46289;51.992;4.498;2023-09-18T04:51:02;100304.63;;;18.34;100.00
60437;BME280;46289;51.992;4.498;2023-09-18T04:53:08;100306.19;;;18.37;100.00
60437;BME280;46289;51.992;4.498;2023-09-18T04:55:13;100308.72;;;18.38;100.00
60437;BME280;46289;51.992;4.498;2023-09-18T04:57:18;100315.47;;;18.42;100.00
60437;BME280;46289;51.992;4.498;2023-09-18T04:59:24;100286.47;;;18.39;100.00
60437;BME280;46289;51.992;4.498;2023-09-18T05:01:32;100282.13;;;18.38;100.00
60437;BME280;46289;51.992;4.498;2023-09-18T05:03:37;100273.41;;;18.36;100.00
60437;BME280;46289;51.992;4.498;2023-09-18T05:05:46;100268.69;;;18.40;100.00
60437;BME280;46289;51.992;4.498;2023-09-18T05:07:52;100266.41;;;18.35;100.00
60437;BME280;46289;51.992;4.498;2023-09-18T05:09:56;100261.22;;;18.34;100.00
60437;BME280;46289;51.992;4.498;2023-09-18T05:12:04;100259.53;;;18.33;100.00
60437;BME280;46289;51.992;4.498;2023-09-18T05:14:07;100260.38;;;18.33;100.00
60437;BME280;46289;51.992;4.498;2023-09-18T05:16:12;100255.06;;;18.33;100.00
60437;BME280;46289;51.992;4.498;2023-09-18T05:18:20;100261.09;;;18.35;100.00
60437;BME280;46289;51.992;4.498;2023-09-18T05:20:27;100260.13;;;18.36;100.00
60437;BME280;46289;51.992;4.498;2023-09-18T05:22:33;100262.53;;;18.39;100.00
60437;BME280;46289;51.992;4.498;2023-09-18T05:24:38;100256.94;;;18.42;100.00
60437;BME280;46289;51.992;4.498;2023-09-18T05:26:43;100262.25;;;18.42;100.00
60437;BME280;46289;51.992;4.498;2023-09-18T05:28:48;100255.84;;;18.45;100.00
60437;BME280;46289;51.992;4.498;2023-09-18T05:30:57;100255.84;;;18.45;100.00
60437;BME280;46289;51.992;4.498;2023-09-18T05:33:03;100253.06;;;18.47;100.00
60437;BME280;46289;51.992;4.498;2023-09-18T05:35:12;100235.16;;;18.49;100.00
60437;BME280;46289;51.992;4.498;2023-09-18T05:37:15;100242.53;;;18.45;100.00
60437;BME280;46289;51.992;4.498;2023-09-18T05:39:21;100236.84;;;18.50;100.00
60437;BME280;46289;51.992;4.498;2023-09-18T05:41:26;100237.81;;;18.49;100.00
60437;BME280;46289;51.992;4.498;2023-09-18T05:43:31;100228.13;;;18.48;100.00
60437;BME280;46289;51.992;4.498;2023-09-18T05:45:37;100234.28;;;18.48;100.00
60437;BME280;46289;51.992;4.498;2023-09-18T05:47:43;100238.78;;;18.48;100.00
60437;BME280;46289;51.992;4.498;2023-09-18T05:49:48;100234.28;;;18.48;100.00
60437;BME280;46289;51.992;4.498;2023-09-18T05:52:00;100233.47;;;18.48;100.00
60437;BME280;46289;51.992;4.498;2023-09-18T05:54:05;100244.38;;;18.45;100.00
60437;BME280;46289;51.992;4.498;2023-09-18T05:56:10;100243.53;;;18.44;100.00
60437;BME280;46289;51.992;4.498;2023-09-18T05:58:21;100248.84;;;18.44;100.00
60437;BME280;46289;51.992;4.498;2023-09-18T06:00:28;100256.00;;;18.43;100.00
60437;BME280;46289;51.992;4.498;2023-09-18T06:02:34;100252.72;;;18.40;100.00
60437;BME280;46289;51.992;4.498;2023-09-18T06:04:39;100264.09;;;18.42;100.00
60437;BME280;46289;51.992;4.498;2023-09-18T06:06:45;100269.03;;;18.47;100.00
60437;BME280;46289;51.992;4.498;2023-09-18T06:08:53;100267.09;;;18.49;100.00
60437;BME280;46289;51.992;4.498;2023-09-18T06:10:58;100268.06;;;18.48;100.00
60437;BME280;46289;51.992;4.498;2023-09-18T06:13:04;100266.22;;;18.48;100.00
60437;BME280;46289;51.992;4.498;2023-09-18T06:15:09;100280.25;;;18.50;100.00
60437;BME280;46289;51.992;4.498;2023-09-18T06:17:15;100271.44;;;18.50;100.00
60437;BME280;46289;51.992;4.498;2023-09-18T06:19:21;100278.56;;;18.49;100.00
60437;BME280;46289;51.992;4.498;2023-09-18T06:21:26;100271.44;;;18.50;100.00
60437;BME280;46289;51.992;4.498;2023-09-18T06:23:31;100278.69;;;18.48;100.00
60437;BME280;46289;51.992;4.498;2023-09-18T06:25:37;100272.53;;;18.47;100.00
60437;BME280;46289;51.992;4.498;2023-09-18T06:27:43;100266.38;;;18.47;100.00
60437;BME280;46289;51.992;4.498;2023-09-18T06:29:45;100266.88;;;18.40;100.00
60437;BME280;46289;51.992;4.498;2023-09-18T06:31:50;100266.16;;;18.38;100.00
60437;BME280;46289;51.992;4.498;2023-09-18T06:33:56;100257.47;;;18.36;100.00
60437;BME280;46289;51.992;4.498;2023-09-18T06:36:01;100264.47;;;18.37;100.00
60437;BME280;46289;51.992;4.498;2023-09-18T06:38:06;100259.84;;;18.39;100.00
60437;BME280;46289;51.992;4.498;2023-09-18T06:40:15;100251.16;;;18.37;100.00
60437;BME280;46289;51.992;4.498;2023-09-18T06:42:28;100247.81;;;18.35;100.00
60437;BME280;46289;51.992;4.498;2023-09-18T06:44:33;100246.81;;;18.36;100.00
60437;BME280;46289;51.992;4.498;2023-09-18T06:46:38;100246.81;;;18.36;100.00
60437;BME280;46289;51.992;4.498;2023-09-18T06:48:44;100255.53;;;18.38;100.00
60437;BME280;46289;51.992;4.498;2023-09-18T06:50:51;100259.13;;;18.37;100.00
60437;BME280;46289;51.992;4.498;2023-09-18T06:52:57;100255.06;;;18.33;100.00
60437;BME280;46289;51.992;4.498;2023-09-18T06:55:03;100255.53;;;18.38;100.00
60437;BME280;46289;51.992;4.498;2023-09-18T06:57:08;100261.94;;;18.36;100.00
60437;BME280;46289;51.992;4.498;2023-09-18T06:59:16;100270.03;;;18.34;100.00
60437;BME280;46289;51.992;4.498;2023-09-18T07:01:21;100262.41;;;18.30;100.00
60437;BME280;46289;51.992;4.498;2023-09-18T07:03:27;100266.44;;;18.24;100.00
60437;BME280;46289;51.992;4.498;2023-09-18T07:05:34;100263.06;;;18.22;100.00
60437;BME280;46289;51.992;4.498;2023-09-18T07:07:39;100271.91;;;18.23;100.00
60437;BME280;46289;51.992;4.498;2023-09-18T07:09:45;100272.63;;;18.25;100.00
60437;BME280;46289;51.992;4.498;2023-09-18T07:12:05;100275.28;;;18.25;100.00
60437;BME280;46289;51.992;4.498;2023-09-18T07:14:10;100271.75;;;18.24;100.00
60437;BME280;46289;51.992;4.498;2023-09-18T07:16:18;100267.88;;;18.28;100.00
60437;BME280;46289;51.992;4.498;2023-09-18T07:18:24;100266.88;;;18.40;100.00
60437;BME280;46289;51.992;4.498;2023-09-18T07:20:29;100270.50;;;18.39;100.00
60437;BME280;46289;51.992;4.498;2023-09-18T07:22:34;100278.75;;;18.36;100.00
60437;BME280;46289;51.992;4.498;2023-09-18T07:24:36;100277.06;;;18.35;100.00
60437;BME280;46289;51.992;4.498;2023-09-18T07:26:44;100286.00;;;18.34;100.00
60437;BME280;46289;51.992;4.498;2023-09-18T07:28:50;100288.41;;;18.37;100.00
60437;BME280;46289;51.992;4.498;2023-09-18T07:31:05;100298.56;;;18.43;100.00
60437;BME280;46289;51.992;4.498;2023-09-18T07:33:14;100285.84;;;18.47;100.00
60437;BME280;46289;51.992;4.498;2023-09-18T07:35:22;100291.50;;;18.54;100.00
60437;BME280;46289;51.992;4.498;2023-09-18T07:37:27;100292.28;;;18.65;100.00
60437;BME280;46289;51.992;4.498;2023-09-18T07:39:32;100294.97;;;18.65;100.00
60437;BME280;46289;51.992;4.498;2023-09-18T07:41:37;100303.06;;;18.64;100.00
60437;BME280;46289;51.992;4.498;2023-09-18T07:43:43;100304.88;;;18.63;100.00
60437;BME280;46289;51.992;4.498;2023-09-18T07:45:49;100309.09;;;18.77;100.00
60437;BME280;46289;51.992;4.498;2023-09-18T07:47:54;100305.09;;;18.72;100.00
60437;BME280;46289;51.992;4.498;2023-09-18T07:50:03;100304.63;;;18.99;100.00
60437;BME280;46289;51.992;4.498;2023-09-18T07:52:08;100303.13;;;19.06;100.00
60437;BME280;46289;51.992;4.498;2023-09-18T07:54:14;100313.00;;;19.15;100.00
60437;BME280;46289;51.992;4.498;2023-09-18T07:56:19;100314.88;;;19.24;100.00
60437;BME280;46289;51.992;4.498;2023-09-18T07:58:24;100312.72;;;19.39;100.00
60437;BME280;46289;51.992;4.498;2023-09-18T08:00:30;100304.72;;;19.60;100.00
60437;BME280;46289;51.992;4.498;2023-09-18T08:02:35;100316.47;;;19.79;100.00
60437;BME280;46289;51.992;4.498;2023-09-18T08:04:41;100316.44;;;20.09;100.00
60437;BME280;46289;51.992;4.498;2023-09-18T08:06:51;100324.41;;;20.00;100.00
60437;BME280;46289;51.992;4.498;2023-09-18T08:08:56;100331.66;;;20.38;100.00
60437;BME280;46289;51.992;4.498;2023-09-18T08:11:07;100332.06;;;20.33;100.00
60437;BME280;46289;51.992;4.498;2023-09-18T08:13:16;100332.06;;;20.43;100.00
60437;BME280;46289;51.992;4.498;2023-09-18T08:15:22;100331.25;;;20.52;100.00
60437;BME280;46289;51.992;4.498;2023-09-18T08:17:27;100336.28;;;20.46;100.00
60437;BME280;46289;51.992;4.498;2023-09-18T08:19:33;100334.75;;;19.93;100.00
60437;BME280;46289;51.992;4.498;2023-09-18T08:21:39;100335.63;;;20.03;100.00
60437;BME280;46289;51.992;4.498;2023-09-18T08:23:49;100339.84;;;19.96;100.00
60437;BME280;46289;51.992;4.498;2023-09-18T08:26:02;100332.91;;;19.84;100.00
60437;BME280;46289;51.992;4.498;2023-09-18T08:28:07;100336.78;;;19.70;100.00
60437;BME280;46289;51.992;4.498;2023-09-18T08:30:14;100338.91;;;19.76;100.00
60437;BME280;46289;51.992;4.498;2023-09-18T08:32:22;100344.22;;;19.76;100.00
60437;BME280;46289;51.992;4.498;2023-09-18T08:34:28;100339.16;;;19.73;100.00
60437;BME280;46289;51.992;4.498;2023-09-18T08:36:33;100343.91;;;19.69;100.00
60437;BME280;46289;51.992;4.498;2023-09-18T08:38:38;100335.31;;;19.66;100.00
60437;BME280;46289;51.992;4.498;2023-09-18T08:40:53;100339.03;;;19.53;100.00
60437;BME280;46289;51.992;4.498;2023-09-18T08:42:59;100341.13;;;19.50;100.00
60437;BME280;46289;51.992;4.498;2023-09-18T08:45:08;100344.59;;;19.41;100.00
60437;BME280;46289;51.992;4.498;2023-09-18T08:47:14;100340.28;;;19.28;100.00
60437;BME280;46289;51.992;4.498;2023-09-18T08:49:20;100344.19;;;19.24;100.00
60437;BME280;46289;51.992;4.498;2023-09-18T08:51:25;100351.72;;;19.19;100.00
60437;BME280;46289;51.992;4.498;2023-09-18T08:53:31;100351.88;;;19.18;100.00
60437;BME280;46289;51.992;4.498;2023-09-18T08:55:36;100359.41;;;19.13;100.00
60437;BME280;46289;51.992;4.498;2023-09-18T08:57:48;100353.34;;;19.11;100.00
60437;BME280;46289;51.992;4.498;2023-09-18T08:59:57;100360.13;;;19.15;100.00
60437;BME280;46289;51.992;4.498;2023-09-18T09:02:08;100351.88;;;19.18;100.00
60437;BME280;46289;51.992;4.498;2023-09-18T09:04:16;100350.38;;;19.25;100.00
60437;BME280;46289;51.992;4.498;2023-09-18T09:06:21;100373.72;;;19.33;100.00
60437;BME280;46289;51.992;4.498;2023-09-18T09:08:27;100375.66;;;19.30;100.00
60437;BME280;46289;51.992;4.498;2023-09-18T09:10:34;100381.25;;;19.27;100.00
60437;BME280;46289;51.992;4.498;2023-09-18T09:12:55;100377.03;;;19.25;100.00
60437;BME280;46289;51.992;4.498;2023-09-18T09:15:04;100370.88;;;19.13;100.00
60437;BME280;46289;51.992;4.498;2023-09-18T09:17:09;100380.69;;;19.13;100.00
60437;BME280;46289;51.992;4.498;2023-09-18T09:19:16;100380.53;;;19.25;100.00
60437;BME280;46289;51.992;4.498;2023-09-18T09:21:21;100377.03;;;19.25;100.00
60437;BME280;46289;51.992;4.498;2023-09-18T09:23:28;100374.03;;;19.39;100.00
60437;BME280;46289;51.992;4.498;2023-09-18T09:25:33;100372.56;;;19.35;100.00
60437;BME280;46289;51.992;4.498;2023-09-18T09:27:44;100378.25;;;19.42;100.00
60437;BME280;46289;51.992;4.498;2023-09-18T09:30:00;100374.13;;;19.38;100.00
60437;BME280;46289;51.992;4.498;2023-09-18T09:32:13;100367.78;;;19.50;100.00
60437;BME280;46289;51.992;4.498;2023-09-18T09:34:27;100382.72;;;19.41;100.00
60437;BME280;46289;51.992;4.498;2023-09-18T09:36:32;100385.31;;;19.52;100.00
60437;BME280;46289;51.992;4.498;2023-09-18T09:38:38;100370.50;;;20.21;100.00
60437;BME280;46289;51.992;4.498;2023-09-18T09:40:43;100377.97;;;20.68;100.00
60437;BME280;46289;51.992;4.498;2023-09-18T09:42:51;100383.28;;;20.68;99.45
60437;BME280;46289;51.992;4.498;2023-09-18T09:45:13;100374.88;;;20.92;97.69
60437;BME280;46289;51.992;4.498;2023-09-18T09:47:19;100374.00;;;20.22;97.31
60437;BME280;46289;51.992;4.498;2023-09-18T09:49:24;100375.31;;;20.37;97.56
60437;BME280;46289;51.992;4.498;2023-09-18T09:51:31;100390.19;;;20.20;98.03
60437;BME280;46289;51.992;4.498;2023-09-18T09:53:47;100374.72;;;20.54;96.16
60437;BME280;46289;51.992;4.498;2023-09-18T09:55:56;100377.66;;;21.19;96.19
60437;BME280;46289;51.992;4.498;2023-09-18T09:58:02;100388.09;;;21.22;95.24
60437;BME280;46289;51.992;4.498;2023-09-18T10:00:12;100390.31;;;20.69;93.73
60437;BME280;46289;51.992;4.498;2023-09-18T10:02:29;100380.38;;;20.80;94.75
60437;BME280;46289;51.992;4.498;2023-09-18T10:04:37;100386.66;;;20.60;95.33
60437;BME280;46289;51.992;4.498;2023-09-18T10:06:49;100381.88;;;20.54;95.58
60437;BME280;46289;51.992;4.498;2023-09-18T10:08:58;100378.50;;;20.61;97.09
60437;BME280;46289;51.992;4.498;2023-09-18T10:11:06;100394.25;;;20.74;96.46
60437;BME280;46289;51.992;4.498;2023-09-18T10:13:16;100375.56;;;20.74;93.78
60437;BME280;46289;51.992;4.498;2023-09-18T10:15:25;100388.34;;;20.71;93.75
60437;BME280;46289;51.992;4.498;2023-09-18T10:17:33;100383.00;;;20.61;93.12
60437;BME280;46289;51.992;4.498;2023-09-18T10:19:45;100389.88;;;20.54;93.37
60437;BME280;46289;51.992;4.498;2023-09-18T10:22:01;100382.59;;;20.95;92.01
60437;BME280;46289;51.992;4.498;2023-09-18T10:24:17;100379.66;;;21.17;90.38
60437;BME280;46289;51.992;4.498;2023-09-18T10:26:26;100373.66;;;21.72;87.40
60437;BME280;46289;51.992;4.498;2023-09-18T10:28:32;100366.97;;;21.19;89.62
60437;BME280;46289;51.992;4.498;2023-09-18T10:30:44;100379.50;;;21.29;89.49
60437;BME280;46289;51.992;4.498;2023-09-18T10:32:50;100381.47;;;21.93;87.51
60437;BME280;46289;51.992;4.498;2023-09-18T10:34:57;100384.91;;;21.76;85.13
60437;BME280;46289;51.992;4.498;2023-09-18T10:37:03;100378.44;;;21.78;84.34
60437;BME280;46289;51.992;4.498;2023-09-18T10:39:10;100369.50;;;21.97;83.31
60437;BME280;46289;51.992;4.498;2023-09-18T10:41:15;100369.59;;;22.61;84.52
60437;BME280;46289;51.992;4.498;2023-09-18T10:43:21;100383.38;;;22.20;82.89
60437;BME280;46289;51.992;4.498;2023-09-18T10:45:29;100381.31;;;21.57;84.82
60437;BME280;46289;51.992;4.498;2023-09-18T10:47:42;100379.19;;;21.51;85.21
60437;BME280;46289;51.992;4.498;2023-09-18T10:49:48;100379.56;;;21.85;83.30
60437;BME280;46289;51.992;4.498;2023-09-18T10:51:55;100376.31;;;21.72;84.64
60437;BME280;46289;51.992;4.498;2023-09-18T10:54:03;100375.66;;;21.70;83.44
60437;BME280;46289;51.992;4.498;2023-09-18T10:56:09;100379.25;;;22.26;81.92